Time;durP1;ratioP1;P1;durP2;ratioP2;P2;SDS_P1;SDS_P2;PMS_P1;PMS_P2;Temp;Humidity;BMP_temperature;BMP_pressure;BME280_temperature;BME280_humidity;BME280_pressure;Samples;Min_cycle;Max_cycle;Signal;HPM_P1;HPM_P2
2023/08/13 00:02:17;;;;;;;2.03;1.83;;;18.30;99.90;;;;;;6082581;23;20362;-69
2023/08/13 00:04:43;;;;;;;2.70;1.87;;;18.40;99.90;;;;;;6083302;23;20178;-70
2023/08/13 00:07:09;;;;;;;2.20;1.70;;;18.40;99.90;;;;;;6080835;23;20165;-70
2023/08/13 00:09:35;;;;;;;3.83;2.30;;;18.30;99.90;;;;;;6081593;23;20192;-69
2023/08/13 00:12:01;;;;;;;2.63;2.20;;;18.30;99.90;;;;;;6081747;23;20798;-70
2023/08/13 00:14:27;;;;;;;3.80;2.47;;;18.20;99.90;;;;;;6010080;23;20168;-69
2023/08/13 00:16:52;;;;;;;2.80;2.33;;;18.20;99.90;;;;;;6058835;23;20133;-70
2023/08/13 00:19:18;;;;;;;3.53;2.30;;;18.20;99.90;;;;;;6082496;23;20169;-69
2023/08/13 00:21:44;;;;;;;2.73;1.90;;;18.10;99.90;;;;;;6082868;23;20413;-69
2023/08/13 00:24:09;;;;;;;2.73;2.53;;;18.10;99.90;;;;;;6082684;23;20160;-70
2023/08/13 00:26:36;;;;;;;3.27;1.70;;;18.00;99.90;;;;;;6081447;23;20141;-69
2023/08/13 00:29:04;;;;;;;2.13;1.67;;;18.00;99.90;;;;;;6079554;23;20145;-71
2023/08/13 00:31:32;;;;;;;3.80;2.33;;;17.90;99.90;;;;;;6057900;23;20405;-72
2023/08/13 00:33:59;;;;;;;5.17;3.27;;;18.00;99.90;;;;;;6064386;23;20378;-68
2023/08/13 00:36:25;;;;;;;3.10;2.63;;;18.00;99.90;;;;;;6080965;23;20511;-68
2023/08/13 00:38:50;;;;;;;2.40;2.20;;;18.00;99.90;;;;;;6077804;23;20573;-68
2023/08/13 00:41:16;;;;;;;3.07;2.20;;;18.20;99.90;;;;;;6077191;23;20168;-73
2023/08/13 00:43:43;;;;;;;3.40;1.83;;;18.20;99.90;;;;;;6080803;23;20553;-71
2023/08/13 00:46:10;;;;;;;2.07;1.87;;;18.20;99.90;;;;;;6081167;23;20420;-70
2023/08/13 00:48:42;;;;;;;4.50;2.60;;;18.30;99.90;;;;;;6084635;23;20141;-70
2023/08/13 00:51:11;;;;;;;3.30;2.80;;;18.30;99.90;;;;;;6058289;23;20397;-69
2023/08/13 00:53:44;;;;;;;2.83;2.50;;;18.40;99.90;;;;;;6081406;23;20425;-68
2023/08/13 00:56:10;;;;;;;7.10;4.40;;;18.50;99.90;;;;;;6057260;23;20369;-69
2023/08/13 00:58:35;;;;;;;5.03;4.53;;;18.50;99.90;;;;;;6077907;23;20481;-68
2023/08/13 01:01:01;;;;;;;4.50;3.70;;;18.60;99.90;;;;;;6082053;23;20389;-68
2023/08/13 01:03:27;;;;;;;3.87;2.90;;;18.60;99.90;;;;;;6079940;23;20148;-67
2023/08/13 01:06:13;;;;;;;4.33;3.23;;;18.60;99.90;;;;;;6081781;23;20182;-69
2023/08/13 01:09:06;;;;;;;3.87;2.90;;;18.70;99.90;;;;;;6082453;23;20171;-73
2023/08/13 01:11:35;;;;;;;5.13;3.03;;;18.70;99.90;;;;;;6080795;23;20412;-69
2023/08/13 01:14:29;;;;;;;3.13;2.67;;;18.70;99.90;;;;;;6082066;23;20369;-68
2023/08/13 01:16:57;;;;;;;3.93;2.40;;;18.70;99.90;;;;;;5993581;23;20389;-70
2023/08/13 01:19:23;;;;;;;4.93;3.57;;;18.70;99.90;;;;;;6080676;23;20526;-69
2023/08/13 01:21:49;;;;;;;3.20;2.20;;;18.60;99.90;;;;;;6084230;23;20377;-68
2023/08/13 01:24:15;;;;;;;3.20;2.90;;;18.60;99.90;;;;;;6080522;23;20372;-69
2023/08/13 01:27:06;;;;;;;2.27;2.07;;;18.60;99.90;;;;;;6080291;23;20358;-68
2023/08/13 01:29:57;;;;;;;2.20;1.63;;;18.50;99.90;;;;;;6078930;23;20169;-69
2023/08/13 01:32:28;;;;;;;2.27;2.07;;;18.50;99.90;;;;;;6076515;23;20428;-68
2023/08/13 01:34:56;;;;;;;2.23;2.03;;;18.50;99.90;;;;;;6079393;23;20377;-67
2023/08/13 01:37:22;;;;;;;2.67;1.87;;;18.50;99.90;;;;;;6077577;23;20424;-67
2023/08/13 01:39:49;;;;;;;2.67;1.90;;;18.50;99.90;;;;;;6077903;23;20421;-67
2023/08/13 01:42:15;;;;;;;1.73;1.40;;;18.50;99.90;;;;;;6078753;23;20456;-68
2023/08/13 01:44:41;;;;;;;2.97;2.13;;;18.50;99.90;;;;;;6080114;23;20385;-68
2023/08/13 01:47:06;;;;;;;2.57;1.73;;;18.50;99.90;;;;;;6081701;23;20141;-67
2023/08/13 01:49:32;;;;;;;2.63;1.70;;;18.40;99.90;;;;;;6080554;23;20185;-69
2023/08/13 01:51:58;;;;;;;2.57;2.03;;;18.40;99.90;;;;;;6079793;23;20153;-67
2023/08/13 01:54:24;;;;;;;5.40;2.50;;;18.40;99.90;;;;;;6079519;23;20468;-70
2023/08/13 01:56:49;;;;;;;2.30;1.60;;;18.30;99.90;;;;;;6082077;23;20144;-67
2023/08/13 01:59:16;;;;;;;2.17;1.80;;;18.30;99.90;;;;;;6080206;23;20184;-67
2023/08/13 02:01:42;;;;;;;1.60;1.50;;;18.30;99.90;;;;;;6079069;23;20152;-67
2023/08/13 02:04:07;;;;;;;2.17;1.47;;;18.10;99.90;;;;;;6084475;23;20528;-68
2023/08/13 02:06:35;;;;;;;1.83;1.63;;;18.10;99.90;;;;;;6082645;23;20500;-69
2023/08/13 02:09:01;;;;;;;2.10;1.50;;;18.00;99.90;;;;;;6080255;23;20156;-68
2023/08/13 02:11:27;;;;;;;1.90;1.70;;;17.90;99.90;;;;;;6077092;23;20417;-69
2023/08/13 02:13:52;;;;;;;3.30;1.40;;;17.70;99.90;;;;;;6079602;23;20396;-68
2023/08/13 02:16:18;;;;;;;2.27;1.80;;;17.70;99.90;;;;;;6079139;23;20172;-68
2023/08/13 02:18:43;;;;;;;3.60;2.23;;;17.70;99.90;;;;;;6077317;23;20189;-68
2023/08/13 02:21:09;;;;;;;2.27;1.90;;;17.50;99.90;;;;;;6080420;23;20195;-67
2023/08/13 02:23:35;;;;;;;2.70;1.73;;;17.50;99.90;;;;;;6082604;23;20225;-68
2023/08/13 02:26:01;;;;;;;2.00;1.60;;;17.50;99.90;;;;;;6079055;23;20167;-68
2023/08/13 02:28:27;;;;;;;1.63;1.40;;;17.40;99.90;;;;;;6078305;23;20393;-67
2023/08/13 02:30:53;;;;;;;3.93;2.37;;;17.30;99.90;;;;;;6078066;23;20749;-67
2023/08/13 02:33:18;;;;;;;3.73;2.83;;;17.40;99.90;;;;;;6077108;23;20150;-68
2023/08/13 02:35:44;;;;;;;2.20;2.00;;;17.20;99.90;;;;;;6078402;23;20155;-67
2023/08/13 02:38:10;;;;;;;4.03;2.57;;;17.30;99.90;;;;;;6078582;23;20145;-69
2023/08/13 02:40:36;;;;;;;5.50;2.37;;;17.30;99.90;;;;;;6079114;23;20427;-68
2023/08/13 02:43:02;;;;;;;3.27;2.13;;;17.20;99.90;;;;;;6079613;23;20144;-68
2023/08/13 02:45:28;;;;;;;3.10;2.27;;;17.20;99.90;;;;;;6079842;23;20392;-69
2023/08/13 02:47:54;;;;;;;3.47;2.50;;;17.30;99.90;;;;;;6084322;23;20363;-69
2023/08/13 02:50:19;;;;;;;2.33;2.13;;;17.20;99.90;;;;;;6084142;23;20176;-71
2023/08/13 02:52:45;;;;;;;2.50;1.90;;;17.10;99.90;;;;;;6078149;23;20483;-67
2023/08/13 02:55:10;;;;;;;2.67;1.87;;;17.10;99.90;;;;;;6077009;23;20139;-68
2023/08/13 02:57:36;;;;;;;1.87;1.63;;;17.10;99.90;;;;;;6075804;23;20439;-68
2023/08/13 03:00:05;;;;;;;1.93;1.53;;;17.00;99.90;;;;;;6079573;23;20428;-68
2023/08/13 03:02:31;;;;;;;2.07;1.43;;;17.00;99.90;;;;;;6075055;23;20382;-68
2023/08/13 03:04:57;;;;;;;2.10;1.40;;;17.00;99.90;;;;;;6074609;23;20369;-67
2023/08/13 03:07:23;;;;;;;2.03;1.70;;;17.00;99.90;;;;;;6077603;23;20152;-67
2023/08/13 03:09:49;;;;;;;2.90;2.17;;;17.00;99.90;;;;;;6075933;23;20467;-69
2023/08/13 03:12:15;;;;;;;4.60;3.17;;;17.00;99.90;;;;;;6050675;23;20377;-67
2023/08/13 03:14:41;;;;;;;3.97;2.67;;;17.10;99.90;;;;;;6055557;23;20146;-70
2023/08/13 03:17:07;;;;;;;4.27;3.40;;;17.20;99.90;;;;;;6059421;23;20377;-68
2023/08/13 03:19:33;;;;;;;8.57;4.33;;;17.20;99.90;;;;;;6078069;23;20189;-69
2023/08/13 03:21:59;;;;;;;4.37;3.30;;;17.30;99.90;;;;;;6076436;23;20522;-68
2023/08/13 03:24:25;;;;;;;4.13;3.73;;;17.20;99.90;;;;;;6074459;23;20152;-67
2023/08/13 03:26:50;;;;;;;4.10;3.40;;;17.20;99.90;;;;;;6067206;23;20384;-68
2023/08/13 03:29:18;;;;;;;4.87;4.00;;;17.20;99.90;;;;;;6068132;23;20435;-67
2023/08/13 03:31:43;;;;;;;5.40;3.77;;;17.10;99.90;;;;;;6068485;23;20669;-66
2023/08/13 03:34:23;;;;;;;5.30;3.70;;;17.00;99.90;;;;;;6069859;23;20159;-66
2023/08/13 03:36:48;;;;;;;7.03;4.13;;;17.00;99.90;;;;;;6075257;23;20447;-68
2023/08/13 03:39:15;;;;;;;6.93;4.73;;;16.90;99.90;;;;;;6074895;23;20184;-68
2023/08/13 03:41:40;;;;;;;5.53;5.00;;;16.90;99.90;;;;;;6076177;23;20364;-66
2023/08/13 03:44:06;;;;;;;7.30;5.10;;;16.90;99.90;;;;;;6077116;23;20280;-69
2023/08/13 03:46:32;;;;;;;7.70;4.70;;;16.80;99.90;;;;;;6078548;23;20209;-69
2023/08/13 03:48:58;;;;;;;6.03;4.20;;;16.90;99.90;;;;;;6075852;23;20170;-68
2023/08/13 03:51:24;;;;;;;5.50;4.20;;;16.80;99.90;;;;;;6072785;23;20476;-67
2023/08/13 03:53:50;;;;;;;12.60;5.40;;;16.80;99.90;;;;;;6073154;23;20145;-68
2023/08/13 03:56:16;;;;;;;7.00;5.03;;;16.70;99.90;;;;;;6074739;23;20142;-68
2023/08/13 03:58:41;;;;;;;5.47;4.60;;;16.80;99.90;;;;;;6072747;23;20416;-67
2023/08/13 04:01:10;;;;;;;6.10;4.57;;;16.70;99.90;;;;;;6071374;23;20176;-67
2023/08/13 04:03:38;;;;;;;4.73;3.60;;;16.70;99.90;;;;;;6068426;23;20418;-65
2023/08/13 04:06:05;;;;;;;4.73;3.80;;;16.70;99.90;;;;;;6068996;23;20708;-67
2023/08/13 04:08:34;;;;;;;8.77;6.17;;;16.60;99.90;;;;;;6044383;23;20641;-67
2023/08/13 04:10:59;;;;;;;4.73;4.00;;;16.60;99.90;;;;;;6067465;23;20494;-67
2023/08/13 04:13:25;;;;;;;8.90;5.03;;;16.60;99.90;;;;;;6069988;23;20400;-67
2023/08/13 04:15:52;;;;;;;5.90;5.10;;;16.50;99.90;;;;;;6069817;23;20247;-68
2023/08/13 04:18:17;;;;;;;7.30;5.43;;;16.60;99.90;;;;;;6071304;23;20887;-68
2023/08/13 04:20:43;;;;;;;7.57;5.40;;;16.50;99.90;;;;;;6073119;23;20205;-67
2023/08/13 04:23:09;;;;;;;7.03;5.13;;;16.50;99.90;;;;;;6072896;23;20544;-67
2023/08/13 04:25:37;;;;;;;6.50;4.80;;;16.50;99.90;;;;;;6047322;23;20145;-68
2023/08/13 04:28:03;;;;;;;7.60;4.67;;;16.50;99.90;;;;;;6074172;23;20376;-68
2023/08/13 04:30:32;;;;;;;4.90;4.50;;;16.50;99.90;;;;;;6049242;23;20237;-67
2023/08/13 04:32:57;;;;;;;4.63;4.10;;;16.50;99.90;;;;;;6073470;23;20447;-68
2023/08/13 04:35:27;;;;;;;4.57;4.03;;;16.40;99.90;;;;;;6072552;23;20500;-66
2023/08/13 04:37:53;;;;;;;9.83;4.93;;;16.40;99.90;;;;;;6070902;23;20381;-67
2023/08/13 04:40:21;;;;;;;5.23;4.23;;;16.50;99.90;;;;;;6069140;23;20434;-67
2023/08/13 04:42:48;;;;;;;6.07;4.10;;;16.50;99.90;;;;;;6069746;23;20652;-67
2023/08/13 04:45:15;;;;;;;4.33;3.90;;;16.50;99.90;;;;;;6069534;23;20387;-67
2023/08/13 04:47:42;;;;;;;5.57;3.37;;;16.60;99.90;;;;;;6069729;23;20138;-68
2023/08/13 04:50:08;;;;;;;3.90;3.20;;;16.70;99.90;;;;;;6068818;23;20413;-68
2023/08/13 04:52:34;;;;;;;5.90;3.80;;;16.60;99.90;;;;;;6044996;23;20181;-66
2023/08/13 04:55:00;;;;;;;3.90;3.53;;;16.70;99.90;;;;;;6069838;23;20656;-67
2023/08/13 04:57:26;;;;;;;4.90;3.37;;;16.70;99.90;;;;;;6046360;23;20387;-68
2023/08/13 04:59:52;;;;;;;5.00;3.80;;;16.70;99.90;;;;;;6047532;23;20436;-67
2023/08/13 05:02:19;;;;;;;3.77;2.77;;;16.80;99.90;;;;;;6069129;23;20154;-67
2023/08/13 05:04:46;;;;;;;4.80;2.93;;;17.00;99.90;;;;;;6069894;23;20377;-68
2023/08/13 05:07:12;;;;;;;4.90;3.80;;;17.00;99.90;;;;;;6069725;23;20383;-67
2023/08/13 05:09:37;;;;;;;4.27;3.40;;;17.10;99.90;;;;;;6069337;23;20169;-70
2023/08/13 05:12:03;;;;;;;4.43;3.60;;;17.20;99.90;;;;;;6071351;23;20142;-67
2023/08/13 05:14:29;;;;;;;4.10;3.57;;;17.20;99.90;;;;;;5992826;23;20164;-70
2023/08/13 05:16:55;;;;;;;3.50;2.70;;;17.30;99.90;;;;;;6038740;23;20414;-68
2023/08/13 05:19:21;;;;;;;5.17;3.63;;;17.40;99.90;;;;;;6010754;23;20436;-68
2023/08/13 05:21:47;;;;;;;4.00;3.60;;;17.50;99.90;;;;;;6014448;23;20163;-69
2023/08/13 05:24:12;;;;;;;4.93;3.30;;;17.50;99.90;;;;;;5994244;23;20612;-68
2023/08/13 05:26:38;;;;;;;5.87;3.30;;;17.60;99.90;;;;;;6018317;23;20150;-67
2023/08/13 05:29:04;;;;;;;4.10;2.80;;;17.70;99.90;;;;;;5993051;23;20162;-70
2023/08/13 05:31:30;;;;;;;5.40;4.10;;;17.70;99.90;;;;;;5988744;23;20242;-66
2023/08/13 05:33:59;;;;;;;4.37;3.10;;;17.70;99.90;;;;;;5988780;23;20398;-68
2023/08/13 05:36:25;;;;;;;3.30;3.00;;;17.70;99.90;;;;;;6012022;23;20402;-67
2023/08/13 05:38:51;;;;;;;6.37;4.10;;;17.70;99.90;;;;;;6011214;23;20472;-66
2023/08/13 05:41:17;;;;;;;6.83;3.77;;;17.90;99.90;;;;;;5987460;23;20618;-67
2023/08/13 05:43:43;;;;;;;4.90;3.47;;;18.00;99.90;;;;;;6012509;23;20358;-68
2023/08/13 05:46:08;;;;;;;5.30;3.80;;;18.20;99.90;;;;;;6067899;23;20157;-68
2023/08/13 05:48:35;;;;;;;3.37;2.60;;;18.30;99.90;;;;;;6079443;23;20252;-69
2023/08/13 05:51:01;;;;;;;6.33;4.40;;;18.50;99.90;;;;;;6076032;23;20412;-68
2023/08/13 05:53:26;;;;;;;8.53;3.60;;;18.70;99.90;;;;;;6075914;23;20177;-69
2023/08/13 05:55:52;;;;;;;2.87;2.43;;;18.90;99.90;;;;;;6081322;23;20188;-69
2023/08/13 05:58:18;;;;;;;5.47;3.17;;;19.20;99.90;;;;;;6078863;23;20141;-66
2023/08/13 06:00:44;;;;;;;5.27;3.53;;;19.40;99.90;;;;;;6075845;23;20169;-67
2023/08/13 06:03:09;;;;;;;4.40;3.60;;;19.50;99.90;;;;;;6077121;23;20137;-67
2023/08/13 06:05:39;;;;;;;3.83;3.03;;;19.60;99.90;;;;;;6077931;23;20140;-67
2023/08/13 06:08:05;;;;;;;4.20;2.80;;;19.60;99.90;;;;;;6077829;23;20138;-67
2023/08/13 06:10:30;;;;;;;5.77;3.20;;;19.60;99.90;;;;;;6076510;23;20389;-69
2023/08/13 06:12:57;;;;;;;5.13;3.70;;;19.60;99.90;;;;;;6078962;23;20433;-69
2023/08/13 06:15:23;;;;;;;4.00;3.40;;;19.50;99.90;;;;;;6079429;23;20134;-68
2023/08/13 06:17:49;;;;;;;6.80;3.70;;;19.60;99.90;;;;;;6078761;23;20767;-68
2023/08/13 06:20:17;;;;;;;4.40;3.10;;;19.60;99.90;;;;;;6078989;23;20185;-66
2023/08/13 06:22:44;;;;;;;6.13;3.90;;;19.60;99.90;;;;;;6082781;23;20137;-67
2023/08/13 06:25:10;;;;;;;4.07;2.80;;;19.60;99.90;;;;;;6080267;23;20385;-67
2023/08/13 06:27:35;;;;;;;3.83;3.30;;;19.70;99.90;;;;;;6079080;23;20756;-67
2023/08/13 06:30:01;;;;;;;3.20;2.53;;;19.90;99.90;;;;;;6077602;23;20562;-69
2023/08/13 06:32:27;;;;;;;4.83;2.80;;;20.10;99.90;;;;;;6078506;23;20199;-68
2023/08/13 06:34:53;;;;;;;8.87;3.00;;;20.30;99.90;;;;;;6078555;23;20370;-67
2023/08/13 06:37:18;;;;;;;4.30;3.13;;;20.30;99.90;;;;;;6079126;23;20153;-67
2023/08/13 06:39:45;;;;;;;2.93;2.47;;;20.40;99.90;;;;;;6077562;23;20188;-68
2023/08/13 06:42:10;;;;;;;9.27;4.00;;;20.50;99.90;;;;;;6077130;23;20141;-66
2023/08/13 06:44:36;;;;;;;6.13;3.27;;;20.60;99.90;;;;;;6076312;23;20693;-69
2023/08/13 06:47:01;;;;;;;4.83;3.03;;;20.70;99.90;;;;;;6080145;23;20165;-66
2023/08/13 06:49:28;;;;;;;4.90;3.20;;;20.80;99.90;;;;;;6083380;23;20145;-68
2023/08/13 06:51:54;;;;;;;5.90;3.70;;;21.00;99.90;;;;;;6082669;23;20142;-66
2023/08/13 06:54:20;;;;;;;6.27;3.50;;;21.10;99.90;;;;;;6056564;23;20384;-68
2023/08/13 06:56:46;;;;;;;4.70;3.10;;;21.20;99.90;;;;;;6080916;23;20189;-67
2023/08/13 06:59:12;;;;;;;3.57;2.50;;;21.40;99.90;;;;;;6079385;23;20267;-68
2023/08/13 07:01:37;;;;;;;4.43;2.53;;;21.50;99.90;;;;;;6077876;23;20373;-67
2023/08/13 07:04:03;;;;;;;4.60;2.63;;;21.70;99.90;;;;;;6079998;23;20144;-66
2023/08/13 07:06:29;;;;;;;4.00;2.30;;;21.80;99.90;;;;;;6077766;23;20433;-66
2023/08/13 07:08:55;;;;;;;4.27;2.43;;;22.00;99.90;;;;;;6080512;23;20398;-67
2023/08/13 07:11:20;;;;;;;5.33;2.70;;;22.20;99.90;;;;;;6081803;23;20397;-68
2023/08/13 07:13:51;;;;;;;4.20;2.60;;;22.40;99.90;;;;;;6082217;23;20179;-70
2023/08/13 07:16:17;;;;;;;4.70;2.40;;;22.40;99.90;;;;;;6083505;23;20146;-68
2023/08/13 07:18:43;;;;;;;4.37;2.70;;;22.50;99.90;;;;;;6059661;23;20465;-69
2023/08/13 07:21:11;;;;;;;3.63;3.30;;;22.50;99.90;;;;;;6059288;23;20496;-71
2023/08/13 07:23:37;;;;;;;4.23;2.63;;;22.60;99.90;;;;;;6082215;23;20366;-67
2023/08/13 07:26:03;;;;;;;4.50;2.80;;;22.50;99.90;;;;;;6080818;23;20368;-68
2023/08/13 07:28:29;;;;;;;4.70;3.80;;;22.50;99.30;;;;;;6081462;23;20394;-69
2023/08/13 07:30:55;;;;;;;4.60;2.50;;;22.50;99.20;;;;;;6079840;23;20189;-68
2023/08/13 07:33:21;;;;;;;7.13;2.83;;;22.50;99.60;;;;;;6059783;23;20366;-67
2023/08/13 07:35:46;;;;;;;4.30;2.57;;;22.50;99.40;;;;;;6082567;23;20771;-67
2023/08/13 07:38:14;;;;;;;5.40;2.80;;;22.60;99.40;;;;;;6079523;23;20511;-69
2023/08/13 07:40:40;;;;;;;8.10;4.30;;;22.60;99.10;;;;;;6080656;23;20965;-69
2023/08/13 07:43:05;;;;;;;6.47;3.40;;;22.70;99.10;;;;;;6034716;23;20369;-68
2023/08/13 07:45:32;;;;;;;5.27;3.17;;;22.70;99.00;;;;;;6080089;23;20153;-68
2023/08/13 07:47:58;;;;;;;3.80;2.70;;;22.70;98.70;;;;;;6079070;23;20136;-68
2023/08/13 07:50:23;;;;;;;6.10;3.13;;;22.70;98.40;;;;;;6079575;23;20416;-69
2023/08/13 07:52:50;;;;;;;6.13;3.63;;;22.70;98.30;;;;;;6080622;23;20534;-68
2023/08/13 07:55:16;;;;;;;5.00;3.13;;;22.70;97.70;;;;;;6079355;23;20598;-69
2023/08/13 07:57:42;;;;;;;4.77;3.00;;;22.70;98.20;;;;;;6059372;23;20377;-68
2023/08/13 08:00:10;;;;;;;5.77;3.73;;;22.90;98.00;;;;;;6083067;23;20243;-71
2023/08/13 08:02:39;;;;;;;7.10;3.43;;;22.90;97.80;;;;;;6080155;23;20350;-68
2023/08/13 08:05:06;;;;;;;4.93;2.50;;;23.00;97.50;;;;;;6079319;23;20494;-67
2023/08/13 08:07:32;;;;;;;5.40;3.50;;;23.10;97.20;;;;;;6080827;23;20600;-68
2023/08/13 08:09:58;;;;;;;5.97;2.77;;;23.10;96.30;;;;;;6030722;23;20393;-67
2023/08/13 08:12:24;;;;;;;4.90;2.93;;;23.10;95.60;;;;;;6078573;23;20441;-68
2023/08/13 08:14:49;;;;;;;5.03;3.27;;;23.20;95.40;;;;;;6079151;23;20147;-68
2023/08/13 08:17:15;;;;;;;6.23;3.90;;;23.20;95.10;;;;;;6081656;23;20423;-70
2023/08/13 08:19:41;;;;;;;7.60;3.30;;;23.30;95.60;;;;;;6054910;23;20197;-69
2023/08/13 08:22:06;;;;;;;8.00;3.17;;;23.30;94.40;;;;;;6078371;23;20194;-70
2023/08/13 08:24:33;;;;;;;5.17;2.80;;;23.30;94.30;;;;;;6078041;23;20138;-69
2023/08/13 08:26:59;;;;;;;5.43;2.83;;;23.40;94.30;;;;;;6052868;23;20139;-69
2023/08/13 08:29:24;;;;;;;5.47;3.00;;;23.40;93.90;;;;;;6077933;23;20394;-68
2023/08/13 08:31:51;;;;;;;4.50;3.20;;;23.40;93.90;;;;;;6080133;23;20133;-69
2023/08/13 08:34:17;;;;;;;5.67;2.70;;;23.40;93.90;;;;;;6079660;23;20424;-73
2023/08/13 08:36:42;;;;;;;6.00;3.20;;;23.40;93.90;;;;;;6085828;23;20392;-70
2023/08/13 08:39:08;;;;;;;6.40;3.40;;;23.30;94.10;;;;;;6084557;23;20165;-69
2023/08/13 08:41:36;;;;;;;6.00;3.30;;;23.40;93.80;;;;;;6054801;23;20170;-69
2023/08/13 08:44:02;;;;;;;7.33;3.17;;;23.40;93.70;;;;;;6078715;23;20713;-71
2023/08/13 08:46:28;;;;;;;7.77;3.10;;;23.40;94.20;;;;;;6082886;23;20432;-69
2023/08/13 08:48:53;;;;;;;4.77;2.50;;;23.40;93.20;;;;;;6079964;23;20213;-70
2023/08/13 08:51:21;;;;;;;7.50;2.83;;;23.40;93.50;;;;;;6079203;23;20228;-69
2023/08/13 08:53:49;;;;;;;3.10;2.10;;;23.50;93.70;;;;;;6080668;23;20148;-71
2023/08/13 08:56:14;;;;;;;6.97;3.30;;;23.60;93.00;;;;;;6080809;23;20508;-69
2023/08/13 08:58:40;;;;;;;9.10;3.07;;;23.60;91.70;;;;;;6082846;23;20405;-70
2023/08/13 09:01:08;;;;;;;2.70;2.30;;;23.70;91.80;;;;;;6082990;23;20410;-71
2023/08/13 09:03:33;;;;;;;4.60;2.10;;;23.80;91.60;;;;;;6060791;23;20143;-71
2023/08/13 09:05:59;;;;;;;4.87;2.37;;;24.00;91.20;;;;;;6079865;23;20413;-69
2023/08/13 09:08:25;;;;;;;7.30;2.93;;;24.10;90.80;;;;;;6057830;23;20161;-69
2023/08/13 09:10:51;;;;;;;3.73;2.43;;;24.30;89.70;;;;;;6030950;23;20177;-72
2023/08/13 09:13:17;;;;;;;7.20;3.20;;;24.40;87.80;;;;;;6078984;23;20399;-71
2023/08/13 09:15:50;;;;;;;11.20;3.20;;;24.40;86.50;;;;;;6060821;23;20160;-70
2023/08/13 09:18:16;;;;;;;8.60;3.03;;;24.50;84.20;;;;;;6081121;23;20141;-68
2023/08/13 09:20:46;;;;;;;6.80;2.60;;;24.50;81.50;;;;;;6082904;23;20449;-72
2023/08/13 09:23:22;;;;;;;7.63;3.23;;;24.50;81.80;;;;;;6081733;23;20465;-68
2023/08/13 09:25:56;;;;;;;4.77;2.07;;;24.60;80.20;;;;;;6080689;23;20369;-70
2023/08/13 09:28:22;;;;;;;9.27;3.10;;;24.50;78.80;;;;;;6060316;23;20382;-71
2023/08/13 09:30:48;;;;;;;7.60;2.93;;;24.50;79.80;;;;;;6084673;23;20417;-69
2023/08/13 09:33:15;;;;;;;4.77;2.63;;;24.40;78.60;;;;;;6085352;23;20357;-69
2023/08/13 09:35:42;;;;;;;4.87;2.40;;;24.40;78.80;;;;;;6082626;23;20374;-69
2023/08/13 09:38:08;;;;;;;4.13;2.20;;;24.40;78.10;;;;;;6081474;23;20374;-66
2023/08/13 09:40:35;;;;;;;5.40;2.60;;;24.50;77.60;;;;;;6078227;23;20377;-69
2023/08/13 09:43:09;;;;;;;4.73;2.73;;;24.60;76.80;;;;;;6080971;23;20357;-69
2023/08/13 09:45:35;;;;;;;6.63;2.60;;;24.70;76.50;;;;;;6077772;23;20418;-72
2023/08/13 09:48:06;;;;;;;4.70;2.13;;;24.70;77.00;;;;;;6079555;23;20366;-70
2023/08/13 09:50:39;;;;;;;4.40;2.80;;;24.80;77.90;;;;;;6078230;23;20708;-69
2023/08/13 09:53:08;;;;;;;4.13;2.30;;;25.00;76.70;;;;;;6052799;23;20457;-69
2023/08/13 09:55:39;;;;;;;6.83;2.60;;;25.20;74.30;;;;;;6076989;23;20365;-67
2023/08/13 09:58:08;;;;;;;6.07;2.13;;;25.10;75.00;;;;;;6081256;23;20370;-70
2023/08/13 10:00:34;;;;;;;8.13;2.47;;;25.20;73.80;;;;;;6083421;23;20415;-71
2023/08/13 10:03:01;;;;;;;4.97;2.47;;;25.20;74.00;;;;;;6012498;23;20437;-70
2023/08/13 10:05:29;;;;;;;4.50;2.10;;;25.20;72.90;;;;;;6085933;23;20364;-70
2023/08/13 10:07:55;;;;;;;3.67;2.07;;;25.20;72.70;;;;;;6085392;23;20786;-72
2023/08/13 10:10:23;;;;;;;3.60;2.60;;;25.20;73.20;;;;;;6081176;23;20516;-69
2023/08/13 10:12:49;;;;;;;7.23;2.37;;;25.10;73.80;;;;;;6081224;23;20625;-70
2023/08/13 10:15:15;;;;;;;3.87;1.83;;;25.20;74.70;;;;;;6058379;23;20724;-67
2023/08/13 10:17:44;;;;;;;5.03;2.93;;;25.30;75.20;;;;;;6057667;23;20374;-69
2023/08/13 10:20:10;;;;;;;6.73;3.10;;;25.50;74.40;;;;;;6079969;23;20512;-69
2023/08/13 10:22:37;;;;;;;6.33;2.93;;;25.70;74.00;;;;;;6083207;23;20373;-68
2023/08/13 10:25:03;;;;;;;5.50;2.80;;;25.80;73.80;;;;;;6084285;23;20144;-69
2023/08/13 10:27:34;;;;;;;5.67;2.10;;;25.90;72.00;;;;;;6083509;23;20599;-70
2023/08/13 10:30:07;;;;;;;5.90;2.40;;;26.00;72.30;;;;;;6059135;23;20472;-73
2023/08/13 10:32:36;;;;;;;7.33;3.30;;;26.00;71.80;;;;;;6059167;23;20398;-72
2023/08/13 10:35:29;;;;;;;5.47;3.20;;;26.00;71.60;;;;;;6060390;23;20394;-68
2023/08/13 10:37:59;;;;;;;3.47;2.40;;;26.20;71.60;;;;;;6033820;23;20374;-69
2023/08/13 10:40:27;;;;;;;8.63;2.80;;;26.30;71.20;;;;;;6085336;23;20409;-70
2023/08/13 10:42:55;;;;;;;6.17;2.63;;;26.20;69.70;;;;;;6061441;23;20433;-71
2023/08/13 10:45:26;;;;;;;9.20;3.17;;;26.30;70.30;;;;;;6086516;23;20370;-72
2023/08/13 10:47:57;;;;;;;5.10;2.37;;;26.30;69.90;;;;;;6088303;23;20369;-69
2023/08/13 10:50:41;;;;;;;7.10;4.23;;;26.40;69.90;;;;;;6088159;23;20421;-72
2023/08/13 10:53:08;;;;;;;8.80;3.00;;;26.40;69.10;;;;;;6063701;23;20396;-72
2023/08/13 10:55:40;;;;;;;5.77;3.00;;;26.30;69.30;;;;;;6085021;23;20389;-67
2023/08/13 10:58:06;;;;;;;7.17;2.60;;;26.30;68.70;;;;;;6065406;23;20365;-69
2023/08/13 11:00:42;;;;;;;7.37;3.30;;;26.20;69.70;;;;;;6088656;23;20429;-70
2023/08/13 11:03:19;;;;;;;3.47;2.07;;;26.10;70.40;;;;;;6058471;23;20365;-68
2023/08/13 11:05:45;;;;;;;8.07;3.40;;;26.10;71.00;;;;;;6083660;23;20425;-69
2023/08/13 11:08:22;;;;;;;7.27;2.90;;;26.20;70.60;;;;;;6058131;23;20378;-70
2023/08/13 11:10:48;;;;;;;3.47;2.40;;;26.30;70.60;;;;;;6085884;23;20401;-70
2023/08/13 11:13:15;;;;;;;5.13;2.20;;;26.40;70.40;;;;;;6060064;23;20362;-69
2023/08/13 11:15:50;;;;;;;8.80;3.17;;;26.60;70.30;;;;;;6059345;23;20799;-70
2023/08/13 11:18:16;;;;;;;4.57;3.10;;;26.60;70.00;;;;;;6083869;23;20377;-70
2023/08/13 11:20:44;;;;;;;4.60;2.60;;;26.60;69.70;;;;;;6082483;23;20384;-69
2023/08/13 11:23:13;;;;;;;2.83;2.23;;;26.60;70.40;;;;;;6083339;23;21122;-68
2023/08/13 11:25:40;;;;;;;6.30;3.10;;;26.90;70.40;;;;;;6062327;23;20376;-70
2023/08/13 11:28:06;;;;;;;8.47;3.30;;;27.10;70.00;;;;;;6083148;23;20397;-70
2023/08/13 11:30:31;;;;;;;5.77;2.30;;;27.20;68.80;;;;;;6054895;23;20488;-69
2023/08/13 11:32:57;;;;;;;5.67;2.70;;;27.20;68.40;;;;;;6079947;23;20448;-71
2023/08/13 11:35:23;;;;;;;4.50;2.80;;;27.20;68.70;;;;;;6083362;23;20150;-70
2023/08/13 11:37:49;;;;;;;7.83;2.63;;;27.10;67.90;;;;;;6061438;23;20141;-68
2023/08/13 11:40:15;;;;;;;5.70;2.80;;;27.20;67.20;;;;;;6081349;23;20184;-68
2023/08/13 11:42:58;;;;;;;3.70;2.43;;;27.10;67.50;;;;;;6084192;23;20381;-70
2023/08/13 11:45:27;;;;;;;8.60;2.53;;;26.90;68.80;;;;;;6085065;23;20354;-71
2023/08/13 11:48:11;;;;;;;6.33;3.07;;;26.80;69.70;;;;;;6013677;23;20385;-70
2023/08/13 11:50:38;;;;;;;5.43;3.13;;;26.90;70.00;;;;;;6084649;23;20847;-70
2023/08/13 11:53:05;;;;;;;5.13;2.83;;;26.90;69.80;;;;;;6086634;23;20377;-73
2023/08/13 11:55:32;;;;;;;6.23;2.93;;;27.00;70.50;;;;;;6084008;23;20420;-70
2023/08/13 11:57:58;;;;;;;9.10;3.60;;;27.10;69.80;;;;;;6039101;23;20414;-72
2023/08/13 12:00:27;;;;;;;3.10;2.50;;;27.00;70.10;;;;;;6087762;23;20432;-70
2023/08/13 12:03:00;;;;;;;6.50;3.27;;;27.20;70.10;;;;;;6085512;23;20362;-70
2023/08/13 12:05:27;;;;;;;6.53;3.03;;;27.20;69.80;;;;;;6085211;23;20393;-71
2023/08/13 12:07:55;;;;;;;8.70;3.00;;;27.30;69.20;;;;;;6063199;23;20418;-69
2023/08/13 12:10:21;;;;;;;6.00;3.40;;;27.50;69.50;;;;;;6086847;23;20410;-72
2023/08/13 12:12:47;;;;;;;5.30;2.60;;;27.40;69.30;;;;;;6041178;23;20373;-71
2023/08/13 12:15:13;;;;;;;3.70;2.60;;;27.50;69.90;;;;;;6063189;23;20532;-70
2023/08/13 12:17:39;;;;;;;4.30;2.97;;;27.70;70.20;;;;;;6087710;23;20141;-72
2023/08/13 12:20:06;;;;;;;5.90;3.10;;;27.60;69.10;;;;;;6055185;23;20193;-69
2023/08/13 12:22:32;;;;;;;5.47;3.03;;;27.60;68.90;;;;;;6083636;23;20394;-72
2023/08/13 12:24:59;;;;;;;6.80;2.93;;;27.60;70.00;;;;;;6085131;23;20394;-70
2023/08/13 12:27:24;;;;;;;4.83;3.10;;;27.60;70.00;;;;;;6057343;23;20426;-73
2023/08/13 12:29:50;;;;;;;3.80;2.83;;;27.70;69.50;;;;;;6082070;23;20696;-69
2023/08/13 12:32:16;;;;;;;3.63;2.47;;;27.60;69.70;;;;;;6079479;23;20137;-71
2023/08/13 12:34:41;;;;;;;3.80;2.43;;;27.80;70.20;;;;;;6078861;23;20142;-70
2023/08/13 12:37:07;;;;;;;3.70;2.40;;;28.10;68.70;;;;;;6078275;23;20439;-69
2023/08/13 12:39:34;;;;;;;5.00;3.00;;;27.90;67.60;;;;;;6080411;23;20212;-71
2023/08/13 12:42:00;;;;;;;6.30;3.00;;;27.70;67.10;;;;;;6056611;23;20165;-71
2023/08/13 12:44:26;;;;;;;6.50;2.93;;;27.70;68.40;;;;;;6081984;23;20771;-72
2023/08/13 12:46:51;;;;;;;4.33;2.80;;;27.70;68.50;;;;;;6083493;23;20358;-69
2023/08/13 12:49:17;;;;;;;4.77;2.80;;;27.60;65.70;;;;;;6057620;23;20146;-69